Time;durP1;ratioP1;P1;durP2;ratioP2;P2;SDS_P1;SDS_P2;PMS_P1;PMS_P2;Temp;Humidity;BMP_temperature;BMP_pressure;BME280_temperature;BME280_humidity;BME280_pressure;Samples;Min_cycle;Max_cycle;Signal;HPM_P1;HPM_P2
2021/10/11 00:01:50;;;;;;;15.15;11.15;;;;;;;;;;5054318;28;20029;-57
2021/10/11 00:04:41;;;;;;;13.27;11.32;;;;;;;;;;5053796;28;20487;-58
2021/10/11 00:13:12;;;;;;;12.68;10.98;;;;;;;;;;5053987;28;20044;-58
2021/10/11 00:19:09;;;;;;;13.32;11.13;;;;;;;;;;5036603;28;20040;-57
2021/10/11 00:21:38;;;;;;;15.35;10.25;;;;;;;;;;5052760;28;20025;-58
2021/10/11 00:24:18;;;;;;;;;;;;;;;;;;;;;
2021/10/11 00:27:12;;;;;;;11.60;9.93;;;;;;;;;;5047907;28;20554;-58
2021/10/11 00:30:18;;;;;;;13.27;11.52;;;;;;;;;;5053631;28;20032;-57
2021/10/11 00:33:02;;;;;;;17.98;13.98;;;;;;;;;;5068124;28;20106;-57
2021/10/11 00:35:53;;;;;;;16.23;13.07;;;;;;;;;;5072947;28;20039;-58
2021/10/11 00:38:40;;;;;;;13.65;11.65;;;;;;;;;;5072693;28;20028;-58
2021/10/11 00:44:33;;;;;;;19.13;13.65;;;;;;;;;;5073182;28;20509;-58
2021/10/11 00:47:43;;;;;;;17.80;12.82;;;;;;;;;;5072723;28;20450;-58
2021/10/11 00:50:16;;;;;;;15.35;12.73;;;;;;;;;;5070504;28;20037;-57
2021/10/11 00:53:11;;;;;;;15.27;13.20;;;;;;;;;;5073464;28;20449;-58
2021/10/11 00:56:00;;;;;;;17.50;13.50;;;;;;;;;;5070900;28;20025;-57
2021/10/11 01:02:22;;;;;;;15.82;12.07;;;;;;;;;;5057852;28;20044;-57
2021/10/11 01:05:27;;;;;;;16.88;12.30;;;;;;;;;;5073751;28;20028;-58
2021/10/11 01:08:28;;;;;;;13.07;11.73;;;;;;;;;;5071251;28;20025;-58
2021/10/11 01:14:11;;;;;;;14.93;11.10;;;;;;;;;;5052308;28;20048;-58
2021/10/11 01:19:56;;;;;;;12.98;11.02;;;;;;;;;;5073044;28;20054;-58
2021/10/11 01:26:23;;;;;;;16.05;11.90;;;;;;;;;;5067337;28;20090;-58
2021/10/11 01:29:20;;;;;;;16.13;11.55;;;;;;;;;;5069711;28;20029;-58
2021/10/11 01:32:09;;;;;;;19.80;11.40;;;;;;;;;;5066137;28;20032;-58
2021/10/11 01:34:55;;;;;;;14.43;11.45;;;;;;;;;;5053712;28;20391;-58
2021/10/11 01:37:29;;;;;;;17.40;11.70;;;;;;;;;;5051205;28;20024;-57
2021/10/11 01:40:04;;;;;;;12.98;11.63;;;;;;;;;;5051667;28;20021;-58
2021/10/11 01:42:56;;;;;;;14.48;11.38;;;;;;;;;;5052404;28;20143;-58
2021/10/11 01:45:33;;;;;;;14.00;12.18;;;;;;;;;;5041955;28;20546;-58
2021/10/11 01:48:20;;;;;;;13.95;11.88;;;;;;;;;;5052402;28;20475;-58
2021/10/11 01:51:03;;;;;;;12.75;10.45;;;;;;;;;;5053657;28;20041;-57
2021/10/11 01:53:39;;;;;;;21.48;10.57;;;;;;;;;;5052825;28;20479;-58
2021/10/11 01:56:28;;;;;;;16.27;10.73;;;;;;;;;;5053273;28;20029;-58
2021/10/11 01:59:00;;;;;;;12.90;10.43;;;;;;;;;;5052068;28;20021;-57
2021/10/11 02:02:06;;;;;;;12.98;10.55;;;;;;;;;;5053265;28;20021;-58
2021/10/11 02:07:40;;;;;;;14.98;11.77;;;;;;;;;;5054287;28;20374;-58
2021/10/11 02:10:43;;;;;;;12.52;11.25;;;;;;;;;;5056337;28;20494;-57
2021/10/11 02:13:22;;;;;;;15.65;11.27;;;;;;;;;;5055791;28;20498;-58
2021/10/11 02:16:03;;;;;;;;;;;;;;;;;;;;;
2021/10/11 02:24:41;;;;;;;14.50;10.70;;;;;;;;;;5054567;28;19924;-58
2021/10/11 02:30:26;;;;;;;15.52;10.70;;;;;;;;;;5054761;28;20112;-57
2021/10/11 02:33:31;;;;;;;12.77;11.02;;;;;;;;;;5070656;28;20413;-57
2021/10/11 02:36:12;;;;;;;12.48;10.68;;;;;;;;;;5075656;28;20394;-57
2021/10/11 02:39:06;;;;;;;17.80;12.38;;;;;;;;;;5074933;28;20039;-57
2021/10/11 02:41:42;;;;;;;16.88;12.27;;;;;;;;;;5075200;28;20037;-57
2021/10/11 02:44:27;;;;;;;13.90;12.20;;;;;;;;;;5075729;28;20437;-57
2021/10/11 02:47:16;;;;;;;13.45;11.25;;;;;;;;;;5073624;28;20248;-57
2021/10/11 02:49:58;;;;;;;12.63;10.65;;;;;;;;;;5074825;28;20036;-57
2021/10/11 02:52:33;;;;;;;13.60;10.90;;;;;;;;;;5093334;28;20414;-58
2021/10/11 02:55:19;;;;;;;13.55;10.57;;;;;;;;;;5074187;28;20258;-57
2021/10/11 02:58:13;;;;;;;17.25;13.32;;;;;;;;;;5074740;28;20598;-58
2021/10/11 03:00:51;;;;;;;13.30;10.90;;;;;;;;;;5064164;28;20367;-57
2021/10/11 03:06:32;;;;;;;;;;;;;;;;;;;;;
2021/10/11 03:12:06;;;;;;;13.77;11.10;;;;;;;;;;5072119;28;20120;-57
2021/10/11 03:14:33;;;;;;;14.48;10.43;;;;;;;;;;5066106;28;20110;-57
2021/10/11 03:17:18;;;;;;;12.90;10.25;;;;;;;;;;5072559;28;20391;-57
2021/10/11 03:20:08;;;;;;;15.63;12.38;;;;;;;;;;5074213;28;20378;-58
2021/10/11 03:25:55;;;;;;;15.25;12.43;;;;;;;;;;5074748;28;20127;-58
2021/10/11 03:29:03;;;;;;;18.25;11.35;;;;;;;;;;5073989;28;20029;-57
2021/10/11 03:31:50;;;;;;;13.23;10.95;;;;;;;;;;5068483;28;20033;-57
2021/10/11 03:34:32;;;;;;;17.77;13.55;;;;;;;;;;5050904;28;20548;-57
2021/10/11 03:37:18;;;;;;;;;;;;;;;;;;;;;
2021/10/11 03:39:55;;;;;;;15.02;11.43;;;;;;;;;;5050495;28;20406;-57
2021/10/11 03:45:40;;;;;;;16.65;11.27;;;;;;;;;;5050013;28;20056;-57
2021/10/11 03:48:37;;;;;;;13.52;10.18;;;;;;;;;;5052010;28;20032;-56
2021/10/11 03:51:39;;;;;;;11.98;10.55;;;;;;;;;;5069750;28;20366;-57
2021/10/11 03:54:34;;;;;;;12.02;10.48;;;;;;;;;;5053801;28;20029;-58
2021/10/11 03:57:06;;;;;;;13.40;12.00;;;;;;;;;;5054473;28;20037;-57
2021/10/11 04:00:04;;;;;;;15.25;10.05;;;;;;;;;;5051034;28;20091;-57
2021/10/11 04:02:49;;;;;;;14.57;11.67;;;;;;;;;;5052981;28;20562;-57
2021/10/11 04:05:19;;;;;;;14.27;11.38;;;;;;;;;;5052467;28;20497;-57
2021/10/11 04:07:54;;;;;;;13.30;11.23;;;;;;;;;;5066227;28;20538;-57
2021/10/11 04:10:27;;;;;;;16.23;11.48;;;;;;;;;;5072326;28;20024;-57
2021/10/11 04:15:57;;;;;;;16.15;11.98;;;;;;;;;;5071080;28;20052;-57
2021/10/11 04:18:27;;;;;;;13.50;10.77;;;;;;;;;;5051518;28;20125;-57
2021/10/11 04:21:14;;;;;;;13.70;11.15;;;;;;;;;;5052181;28;20064;-57
2021/10/11 04:23:49;;;;;;;12.68;9.82;;;;;;;;;;5052014;28;20431;-57
2021/10/11 04:29:37;;;;;;;12.20;10.47;;;;;;;;;;5057611;28;20039;-57
2021/10/11 04:32:29;;;;;;;12.10;10.23;;;;;;;;;;5062784;28;20072;-57
2021/10/11 04:35:14;;;;;;;15.88;10.63;;;;;;;;;;5050903;28;20483;-57
2021/10/11 04:37:48;;;;;;;14.13;11.63;;;;;;;;;;5050747;28;20482;-57
2021/10/11 04:43:34;;;;;;;19.23;10.93;;;;;;;;;;5053717;28;20107;-56
2021/10/11 04:46:21;;;;;;;18.53;13.03;;;;;;;;;;5072397;28;20115;-57
2021/10/11 04:49:16;;;;;;;12.97;9.80;;;;;;;;;;5071281;28;20021;-57
2021/10/11 04:51:45;;;;;;;12.20;10.97;;;;;;;;;;5071320;28;20040;-58
2021/10/11 04:54:49;;;;;;;18.42;11.88;;;;;;;;;;5072626;28;20459;-58
2021/10/11 05:00:40;;;;;;;12.73;10.77;;;;;;;;;;5051999;28;20515;-57
2021/10/11 05:06:30;;;;;;;14.45;12.70;;;;;;;;;;5052132;28;20621;-58
2021/10/11 05:09:02;;;;;;;14.82;12.27;;;;;;;;;;5048156;28;20479;-58
2021/10/11 05:12:00;;;;;;;16.57;12.53;;;;;;;;;;5061507;28;20016;-57
2021/10/11 05:15:05;;;;;;;19.10;12.57;;;;;;;;;;5070856;28;20064;-57
2021/10/11 05:18:00;;;;;;;18.27;13.73;;;;;;;;;;5070235;28;20064;-56
2021/10/11 05:20:37;;;;;;;14.55;11.60;;;;;;;;;;5063873;28;20048;-57
2021/10/11 05:23:35;;;;;;;15.60;12.87;;;;;;;;;;5059361;28;20037;-57
2021/10/11 05:26:16;;;;;;;14.63;12.07;;;;;;;;;;5062536;28;20061;-58
2021/10/11 05:28:59;;;;;;;21.20;17.95;;;;;;;;;;5063757;28;20036;-57
2021/10/11 05:32:01;;;;;;;15.00;12.17;;;;;;;;;;5056155;28;20513;-57
2021/10/11 05:37:59;;;;;;;15.43;13.20;;;;;;;;;;5024518;28;20028;-57
2021/10/11 05:40:51;;;;;;;;;;;;;;;;;;;;;
2021/10/11 05:43:47;;;;;;;18.63;13.55;;;;;;;;;;5066260;28;20088;-58
2021/10/11 05:46:24;;;;;;;18.27;14.30;;;;;;;;;;5037217;28;20450;-57
2021/10/11 05:49:18;;;;;;;17.50;11.85;;;;;;;;;;5046979;28;20041;-58
2021/10/11 05:52:12;;;;;;;14.95;12.07;;;;;;;;;;5059948;28;20040;-57
2021/10/11 05:57:54;;;;;;;;;;;;;;;;;;;;;
2021/10/11 06:00:57;;;;;;;16.65;12.68;;;;;;;;;;5069491;28;20118;-57
2021/10/11 06:06:41;;;;;;;17.30;13.55;;;;;;;;;;5052513;28;20119;-57
2021/10/11 06:09:32;;;;;;;16.58;13.52;;;;;;;;;;5067532;28;20032;-57
2021/10/11 06:12:23;;;;;;;22.58;14.35;;;;;;;;;;5071455;28;20502;-57
2021/10/11 06:14:56;;;;;;;17.40;13.15;;;;;;;;;;5070398;28;20033;-57
2021/10/11 06:17:37;;;;;;;16.15;13.45;;;;;;;;;;5054166;28;20392;-57
2021/10/11 06:20:19;;;;;;;16.77;13.10;;;;;;;;;;5062428;28;20035;-57
2021/10/11 06:23:07;;;;;;;19.98;13.85;;;;;;;;;;5057810;28;20387;-57
2021/10/11 06:25:35;;;;;;;22.35;14.35;;;;;;;;;;5069839;28;20055;-57
2021/10/11 06:28:21;;;;;;;18.75;14.02;;;;;;;;;;5057547;28;20062;-57
2021/10/11 06:31:05;;;;;;;24.20;13.23;;;;;;;;;;5043658;28;20032;-57
2021/10/11 06:33:43;;;;;;;18.77;15.00;;;;;;;;;;5056614;28;20036;-56
2021/10/11 06:36:31;;;;;;;;;;;;;;;;;;;;;
2021/10/11 06:39:17;;;;;;;21.58;15.10;;;;;;;;;;5064716;28;20283;-57
2021/10/11 06:44:41;;;;;;;18.05;13.43;;;;;;;;;;5068046;28;20059;-57
2021/10/11 06:47:29;;;;;;;18.00;12.55;;;;;;;;;;5062135;28;20029;-57
2021/10/11 06:49:58;;;;;;;18.45;12.75;;;;;;;;;;5066570;28;20161;-57
2021/10/11 06:52:53;;;;;;;17.50;13.68;;;;;;;;;;5058759;28;20027;-57
2021/10/11 06:55:32;;;;;;;19.17;14.57;;;;;;;;;;5061026;28;20971;-57
2021/10/11 06:58:25;;;;;;;18.38;15.13;;;;;;;;;;5067072;28;20036;-57
2021/10/11 07:01:14;;;;;;;23.55;13.48;;;;;;;;;;5062651;28;20482;-58
2021/10/11 07:03:51;;;;;;;18.02;13.85;;;;;;;;;;5059308;28;20652;-57
2021/10/11 07:06:25;;;;;;;18.85;14.23;;;;;;;;;;5063438;28;20079;-56
2021/10/11 07:12:23;;;;;;;;;;;;;;;;;;;;;
2021/10/11 07:17:55;;;;;;;15.95;13.95;;;;;;;;;;5077286;28;20043;-57
2021/10/11 07:20:39;;;;;;;;;;;;;;;;;;;;;
2021/10/11 07:23:15;;;;;;;16.77;13.57;;;;;;;;;;5063382;28;20362;-56
2021/10/11 07:29:11;;;;;;;19.17;13.00;;;;;;;;;;5057206;28;20116;-57
2021/10/11 07:32:03;;;;;;;;;;;;;;;;;;;;;
2021/10/11 07:34:52;;;;;;;15.60;13.15;;;;;;;;;;5009214;28;20033;-57
2021/10/11 07:37:29;;;;;;;17.20;13.82;;;;;;;;;;4999180;28;20022;-57
2021/10/11 07:40:04;;;;;;;22.88;16.15;;;;;;;;;;5002010;28;20053;-57
2021/10/11 07:42:56;;;;;;;26.10;15.52;;;;;;;;;;5023430;28;20045;-57
2021/10/11 07:45:51;;;;;;;19.60;15.18;;;;;;;;;;5063951;28;20455;-57
2021/10/11 07:48:38;;;;;;;18.20;13.93;;;;;;;;;;5067766;28;20036;-57
2021/10/11 07:51:11;;;;;;;21.95;13.80;;;;;;;;;;5058481;28;20028;-58
2021/10/11 07:57:22;;;;;;;21.65;16.73;;;;;;;;;;5063931;28;20029;-58
2021/10/11 08:10:14;;;;;;;17.85;14.23;;;;;;;;;;5088118;28;20400;-57
2021/10/11 08:12:58;;;;;;;18.42;13.60;;;;;;;;;;5061031;28;20450;-57
2021/10/11 08:15:38;;;;;;;20.48;14.48;;;;;;;;;;5059962;28;20513;-56
2021/10/11 08:18:27;;;;;;;19.10;15.17;;;;;;;;;;5061731;28;20033;-57
2021/10/11 08:20:59;;;;;;;15.75;12.20;;;;;;;;;;5047203;28;20125;-57
2021/10/11 08:23:41;;;;;;;17.10;14.77;;;;;;;;;;5064840;28;20023;-57
2021/10/11 08:26:35;;;;;;;16.88;13.15;;;;;;;;;;5058577;28;20475;-57
2021/10/11 08:29:33;;;;;;;19.23;13.68;;;;;;;;;;5059083;28;20025;-57
2021/10/11 08:32:23;;;;;;;19.17;15.13;;;;;;;;;;5062800;28;20439;-57
2021/10/11 08:35:21;;;;;;;19.42;14.05;;;;;;;;;;5064876;28;20032;-56
2021/10/11 08:38:04;;;;;;;22.92;14.88;;;;;;;;;;5040621;28;20491;-57
2021/10/11 08:41:06;;;;;;;17.75;13.57;;;;;;;;;;5055815;28;20434;-57
2021/10/11 08:44:10;;;;;;;15.75;12.93;;;;;;;;;;4988056;28;20431;-57
2021/10/11 08:47:08;;;;;;;22.52;14.45;;;;;;;;;;4934554;28;20042;-58
2021/10/11 08:59:12;;;;;;;15.90;12.65;;;;;;;;;;4923951;29;20040;-57
2021/10/11 09:02:16;;;;;;;15.13;12.80;;;;;;;;;;4920926;29;20406;-58
2021/10/11 09:05:09;;;;;;;18.27;14.95;;;;;;;;;;5018791;28;20124;-57
2021/10/11 09:10:53;;;;;;;20.88;14.65;;;;;;;;;;4993044;28;20045;-57
2021/10/11 09:13:41;;;;;;;21.95;14.73;;;;;;;;;;4986518;28;20385;-57
2021/10/11 09:19:56;;;;;;;19.75;13.65;;;;;;;;;;4987213;28;20030;-57
2021/10/11 09:22:41;;;;;;;;;;;;;;;;;;;;;
2021/10/11 09:25:26;;;;;;;15.43;13.40;;;;;;;;;;4976578;28;20029;-57
2021/10/11 09:27:58;;;;;;;17.58;13.80;;;;;;;;;;5004900;28;20055;-58
2021/10/11 09:30:34;;;;;;;19.00;12.98;;;;;;;;;;5009012;28;20034;-58
2021/10/11 09:33:39;;;;;;;18.23;13.13;;;;;;;;;;5006371;28;20069;-58
2021/10/11 09:36:11;;;;;;;16.40;12.50;;;;;;;;;;4964939;28;20064;-57
2021/10/11 09:38:59;;;;;;;17.80;13.30;;;;;;;;;;4964773;28;20027;-58
2021/10/11 09:45:08;;;;;;;20.27;15.15;;;;;;;;;;5030982;28;20464;-57
2021/10/11 09:51:03;;;;;;;14.27;12.68;;;;;;;;;;5019730;28;20037;-58
2021/10/11 09:53:58;;;;;;;19.50;14.20;;;;;;;;;;5023669;28;20022;-58
2021/10/11 09:59:46;;;;;;;16.65;12.82;;;;;;;;;;5015700;28;20092;-58
2021/10/11 10:02:33;;;;;;;16.45;13.35;;;;;;;;;;5033973;28;20130;-58
2021/10/11 10:05:13;;;;;;;19.98;14.65;;;;;;;;;;5032949;28;20657;-58
2021/10/11 10:10:50;;;;;;;17.80;13.43;;;;;;;;;;5017084;28;20080;-58
2021/10/11 10:13:36;;;;;;;16.00;13.95;;;;;;;;;;5033606;28;20363;-58
2021/10/11 10:19:18;;;;;;;17.00;14.35;;;;;;;;;;5032014;28;20553;-58
2021/10/11 10:25:04;;;;;;;15.05;12.05;;;;;;;;;;5010797;28;20392;-58
2021/10/11 10:30:41;;;;;;;17.63;12.70;;;;;;;;;;5033726;28;20042;-58
2021/10/11 10:36:14;;;;;;;16.95;10.82;;;;;;;;;;5033703;28;20446;-58
2021/10/11 10:38:56;;;;;;;16.30;11.15;;;;;;;;;;5029498;28;20120;-58
2021/10/11 10:44:28;;;;;;;15.15;12.20;;;;;;;;;;5031082;28;20487;-58
2021/10/11 10:50:05;;;;;;;13.95;12.02;;;;;;;;;;5025692;28;20045;-58
2021/10/11 10:52:59;;;;;;;17.95;12.00;;;;;;;;;;5032329;28;20033;-58
2021/10/11 10:55:46;;;;;;;16.30;11.35;;;;;;;;;;5020802;28;20040;-58
2021/10/11 10:58:21;;;;;;;15.45;12.27;;;;;;;;;;5034207;28;20435;-58
2021/10/11 11:00:56;;;;;;;14.30;10.35;;;;;;;;;;5033809;28;20021;-58
2021/10/11 11:03:51;;;;;;;;;;;;;;;;;;;;;
2021/10/11 11:09:19;;;;;;;13.98;9.95;;;;;;;;;;5021998;28;20442;-58
2021/10/11 11:14:49;;;;;;;12.30;10.07;;;;;;;;;;5005654;28;20073;-59
2021/10/11 11:20:52;;;;;;;16.50;11.43;;;;;;;;;;5027042;28;20070;-58
2021/10/11 11:23:31;;;;;;;;;;;;;;;;;;5033963;28;20121;-58
2021/10/11 11:26:22;;;;;;;16.20;12.48;;;;;;;;;;5028042;28;20544;-58
2021/10/11 11:29:18;;;;;;;13.45;11.30;;;;;;;;;;5024970;28;20072;-58
2021/10/11 11:32:10;;;;;;;14.35;11.73;;;;;;;;;;5030392;28;20035;-58
2021/10/11 11:34:55;;;;;;;11.68;9.52;;;;;;;;;;5030454;28;20065;-59
2021/10/11 11:40:53;;;;;;;15.43;12.13;;;;;;;;;;5014811;28;20105;-59
2021/10/11 11:46:54;;;;;;;;;;;;;;;;;;;;;
2021/10/11 11:49:49;;;;;;;16.92;13.70;;;;;;;;;;5018525;28;20044;-59
2021/10/11 11:52:52;;;;;;;17.05;12.23;;;;;;;;;;5027103;28;20112;-59
2021/10/11 11:58:49;;;;;;;17.02;13.45;;;;;;;;;;5028061;28;20030;-58
2021/10/11 12:01:31;;;;;;;15.23;11.55;;;;;;;;;;5031586;28;20479;-58
2021/10/11 12:04:07;;;;;;;18.33;12.70;;;;;;;;;;5029313;28;20028;-58
2021/10/11 12:07:02;;;;;;;14.65;12.10;;;;;;;;;;5012683;28;20036;-58
2021/10/11 12:12:52;;;;;;;14.15;12.68;;;;;;;;;;5006241;28;20179;-58
2021/10/11 12:15:30;;;;;;;12.52;10.73;;;;;;;;;;5006828;28;20032;-60
2021/10/11 12:18:10;;;;;;;12.60;10.63;;;;;;;;;;4985266;28;20088;-58
2021/10/11 12:20:58;;;;;;;11.25;9.80;;;;;;;;;;5000366;28;20105;-60
2021/10/11 12:23:47;;;;;;;20.40;13.35;;;;;;;;;;5029545;28;20075;-58
2021/10/11 12:26:39;;;;;;;18.75;12.88;;;;;;;;;;5026561;28;20047;-58
2021/10/11 12:29:16;;;;;;;14.95;10.98;;;;;;;;;;5020755;28;20037;-58
2021/10/11 12:32:10;;;;;;;13.48;10.75;;;;;;;;;;5034936;28;20087;-58
2021/10/11 12:34:45;;;;;;;20.48;12.60;;;;;;;;;;5031036;28;20387;-58
2021/10/11 12:37:13;;;;;;;15.32;12.23;;;;;;;;;;5030586;28;20045;-59
2021/10/11 12:39:40;;;;;;;23.80;12.50;;;;;;;;;;5031526;28;20437;-59
2021/10/11 12:45:34;;;;;;;17.23;13.20;;;;;;;;;;5020676;28;20048;-59
2021/10/11 12:51:31;;;;;;;17.27;12.13;;;;;;;;;;5022459;28;20049;-58
2021/10/11 12:54:23;;;;;;;15.23;11.32;;;;;;;;;;5020495;28;20029;-58
2021/10/11 12:56:50;;;;;;;19.33;11.07;;;;;;;;;;5018019;28;20112;-59
2021/10/11 12:59:23;;;;;;;16.10;11.48;;;;;;;;;;5033180;28;20787;-58
2021/10/11 13:02:53;;;;;;;;;;;;;;;;;;;;;
2021/10/11 13:05:12;;;;;;;15.45;10.98;;;;;;;;;;5026700;28;20048;-59
2021/10/11 13:07:50;;;;;;;12.70;11.25;;;;;;;;;;5031481;28;20037;-59
2021/10/11 13:10:27;;;;;;;16.58;11.63;;;;;;;;;;5034477;28;20025;-59
2021/10/11 13:13:14;;;;;;;17.23;12.95;;;;;;;;;;5033268;28;20096;-58
2021/10/11 13:15:49;;;;;;;14.15;11.77;;;;;;;;;;5022772;28;20045;-59
2021/10/11 13:18:39;;;;;;;16.63;11.68;;;;;;;;;;5030376;28;20406;-59
2021/10/11 13:21:19;;;;;;;13.30;11.93;;;;;;;;;;5031583;28;20120;-58
2021/10/11 13:23:54;;;;;;;13.25;11.60;;;;;;;;;;5029953;28;20378;-58
2021/10/11 14:29:31;;;;;;;28.23;21.48;;;;;;;;;;5010970;28;20073;-58
2021/10/11 14:32:15;;;;;;;28.00;21.35;;;;;;;;;;5024483;28;20118;-59
2021/10/11 16:00:20;;;;;;;33.40;26.52;;;;;;;;;;5042312;28;20126;-59
2021/10/11 16:02:55;;;;;;;34.10;26.55;;;;;;;;;;5011132;28;20080;-59
2021/10/11 16:05:24;;;;;;;33.95;26.98;;;;;;;;;;5011689;28;20511;-59
2021/10/11 16:08:11;;;;;;;36.50;26.23;;;;;;;;;;5018979;28;20033;-59
2021/10/11 16:10:48;;;;;;;38.08;27.23;;;;;;;;;;5030813;28;20610;-59
2021/10/11 16:19:15;;;;;;;35.90;26.63;;;;;;;;;;5030541;28;20033;-59
2021/10/11 16:22:07;;;;;;;39.50;25.48;;;;;;;;;;5031359;28;20075;-59
2021/10/11 16:27:45;;;;;;;35.80;25.83;;;;;;;;;;5028848;28;20092;-59
2021/10/11 16:30:49;;;;;;;;;;;;;;;;;;;;;
2021/10/11 16:33:21;;;;;;;34.28;26.92;;;;;;;;;;5033763;28;20033;-58
2021/10/11 16:36:13;;;;;;;37.90;26.92;;;;;;;;;;5023058;28;20037;-59
2021/10/11 16:39:03;;;;;;;36.72;26.63;;;;;;;;;;5035154;28;20042;-58
2021/10/11 16:44:42;;;;;;;32.45;24.95;;;;;;;;;;5035540;28;20268;-59
2021/10/11 16:47:11;;;;;;;32.75;24.42;;;;;;;;;;5033861;28;20308;-58
2021/10/11 16:49:41;;;;;;;31.27;24.05;;;;;;;;;;5024642;28;20053;-58
2021/10/11 16:52:19;;;;;;;32.35;25.00;;;;;;;;;;5016011;28;20038;-58
2021/10/11 16:54:52;;;;;;;36.13;25.88;;;;;;;;;;5018151;28;20092;-58
2021/10/11 16:57:23;;;;;;;29.90;22.27;;;;;;;;;;5026300;28;20061;-58
2021/10/11 17:00:12;;;;;;;27.52;20.90;;;;;;;;;;5030773;28;20033;-58
2021/10/11 17:03:03;;;;;;;28.45;20.67;;;;;;;;;;5026813;28;20463;-58
2021/10/11 17:06:03;;;;;;;29.20;21.80;;;;;;;;;;5031226;28;20471;-58
2021/10/11 17:08:48;;;;;;;26.00;18.63;;;;;;;;;;5003438;28;20069;-58
2021/10/11 17:11:31;;;;;;;25.80;18.95;;;;;;;;;;5010260;28;20046;-59
2021/10/11 17:14:06;;;;;;;25.35;19.65;;;;;;;;;;5006396;28;20026;-58
2021/10/11 17:16:39;;;;;;;26.83;20.40;;;;;;;;;;5028498;28;20041;-58
2021/10/11 17:19:24;;;;;;;24.60;21.48;;;;;;;;;;5029779;28;20407;-58
2021/10/11 17:22:08;;;;;;;27.17;19.00;;;;;;;;;;5028025;28;20037;-58
2021/10/11 17:24:50;;;;;;;;;;;;;;;;;;;;;
2021/10/11 17:27:35;;;;;;;25.10;19.30;;;;;;;;;;5022950;28;20101;-58
2021/10/11 17:33:23;;;;;;;28.08;18.73;;;;;;;;;;5008977;28;20411;-58
2021/10/11 17:36:06;;;;;;;28.75;18.90;;;;;;;;;;5033373;28;20089;-58
2021/10/11 17:38:56;;;;;;;26.42;19.00;;;;;;;;;;5029222;28;20390;-58
2021/10/11 17:42:01;;;;;;;20.40;17.92;;;;;;;;;;5032604;28;20148;-58
2021/10/11 17:44:43;;;;;;;31.42;20.42;;;;;;;;;;5032905;28;20034;-58
2021/10/11 17:47:41;;;;;;;22.08;18.20;;;;;;;;;;5033898;28;20021;-58
2021/10/11 17:50:20;;;;;;;25.55;19.55;;;;;;;;;;5032777;28;20037;-58
2021/10/11 17:56:12;;;;;;;23.23;16.88;;;;;;;;;;5011409;28;20116;-58
2021/10/11 17:58:40;;;;;;;18.10;14.65;;;;;;;;;;4992990;28;20076;-58
2021/10/11 18:01:22;;;;;;;20.30;14.50;;;;;;;;;;5032768;28;20033;-59
2021/10/11 18:04:09;;;;;;;18.13;13.25;;;;;;;;;;5033840;28;20078;-59
2021/10/11 18:06:57;;;;;;;;;;;;;;;;;;;;;
2021/10/11 18:09:42;;;;;;;13.68;11.13;;;;;;;;;;5033073;28;20489;-59
2021/10/11 18:12:38;;;;;;;;;;;;;;;;;;;;;
2021/10/11 18:15:18;;;;;;;18.05;11.82;;;;;;;;;;5022143;28;20045;-59
2021/10/11 18:17:47;;;;;;;16.75;11.80;;;;;;;;;;5026268;28;20080;-59
2021/10/11 18:20:42;;;;;;;18.30;13.10;;;;;;;;;;5012169;28;20069;-58
2021/10/11 18:23:17;;;;;;;15.15;10.82;;;;;;;;;;5046594;28;20137;-58
2021/10/11 18:26:00;;;;;;;15.05;11.77;;;;;;;;;;5041126;28;20375;-58
2021/10/11 18:28:49;;;;;;;14.45;12.15;;;;;;;;;;5028671;28;20578;-58
2021/10/11 18:31:20;;;;;;;17.63;12.85;;;;;;;;;;5031965;28;20194;-59
2021/10/11 18:34:04;;;;;;;15.10;12.27;;;;;;;;;;5023141;28;20037;-58
2021/10/11 18:36:47;;;;;;;;;;;;;;;;;;;;;
2021/10/11 18:42:33;;;;;;;13.00;9.70;;;;;;;;;;5013065;28;20117;-58
2021/10/11 18:45:14;;;;;;;13.10;9.80;;;;;;;;;;5042323;28;20037;-59
2021/10/11 18:47:48;;;;;;;17.50;10.65;;;;;;;;;;5053106;28;20029;-58
2021/10/11 18:56:27;;;;;;;15.95;12.02;;;;;;;;;;5013873;28;20395;-58
2021/10/11 19:02:01;;;;;;;14.20;10.32;;;;;;;;;;5033469;28;19905;-57
2021/10/11 19:07:37;;;;;;;16.50;11.57;;;;;;;;;;5024822;28;20168;-57
2021/10/11 19:10:31;;;;;;;13.85;11.35;;;;;;;;;;5012527;28;20259;-57
2021/10/11 19:16:24;;;;;;;13.27;10.60;;;;;;;;;;5010297;28;20117;-57
2021/10/11 19:19:12;;;;;;;12.02;10.18;;;;;;;;;;4995261;28;20068;-57
2021/10/11 19:21:58;;;;;;;13.25;10.77;;;;;;;;;;5013561;28;20023;-56
2021/10/11 19:24:43;;;;;;;12.00;10.68;;;;;;;;;;5014237;28;20516;-57
2021/10/11 19:27:27;;;;;;;14.30;11.15;;;;;;;;;;5030569;28;20051;-57
2021/10/11 19:35:54;;;;;;;12.30;9.52;;;;;;;;;;5033046;28;20038;-57
2021/10/11 19:38:28;;;;;;;11.95;9.93;;;;;;;;;;5030122;28;20507;-57
2021/10/11 19:41:27;;;;;;;13.13;10.18;;;;;;;;;;5020731;28;20037;-57
2021/10/11 19:49:53;;;;;;;13.90;10.38;;;;;;;;;;5039783;28;20037;-57
2021/10/11 19:52:53;;;;;;;12.70;10.77;;;;;;;;;;5032184;28;20033;-58
2021/10/11 19:55:46;;;;;;;16.20;10.60;;;;;;;;;;5032164;28;20060;-58
2021/10/11 19:58:12;;;;;;;15.32;11.13;;;;;;;;;;5031893;28;20083;-58
2021/10/11 20:01:01;;;;;;;;;;;;;;;;;;;;;
2021/10/11 20:03:52;;;;;;;13.57;10.50;;;;;;;;;;5029356;28;20104;-58
2021/10/11 20:06:33;;;;;;;12.23;9.95;;;;;;;;;;5032104;28;20555;-58
2021/10/11 20:09:12;;;;;;;14.13;9.90;;;;;;;;;;5032098;28;20064;-58
2021/10/11 20:12:03;;;;;;;;;;;;;;;;;;;;;
2021/10/11 20:18:09;;;;;;;;;;;;;;;;;;;;;
2021/10/11 20:20:47;;;;;;;13.95;10.50;;;;;;;;;;5029226;28;20399;-58
2021/10/11 20:26:20;;;;;;;13.23;11.13;;;;;;;;;;5031162;28;20030;-58
2021/10/11 20:29:21;;;;;;;16.30;12.00;;;;;;;;;;5029450;28;20045;-57
2021/10/11 20:31:47;;;;;;;;;;;;;;;;;;5032038;28;20041;-56
2021/10/11 20:34:17;;;;;;;11.50;9.68;;;;;;;;;;5033077;28;19905;-58
2021/10/11 20:40:00;;;;;;;12.63;11.15;;;;;;;;;;5032167;28;20383;-58
2021/10/11 20:42:35;;;;;;;13.45;9.90;;;;;;;;;;5031067;28;20245;-58
2021/10/11 20:45:19;;;;;;;15.27;10.35;;;;;;;;;;5030668;28;20488;-58
2021/10/11 20:47:54;;;;;;;15.13;10.48;;;;;;;;;;5030910;28;20107;-58
2021/10/11 20:53:39;;;;;;;13.98;11.43;;;;;;;;;;5032010;28;20092;-58
2021/10/11 20:56:11;;;;;;;11.98;10.07;;;;;;;;;;5008906;28;20490;-57
2021/10/11 20:58:42;;;;;;;14.95;11.07;;;;;;;;;;5011193;28;20045;-58
2021/10/11 21:01:36;;;;;;;17.92;12.93;;;;;;;;;;5013409;28;20111;-58
2021/10/11 21:04:30;;;;;;;14.77;10.88;;;;;;;;;;5017152;28;20073;-58
2021/10/11 21:07:25;;;;;;;13.85;11.25;;;;;;;;;;5016059;28;20196;-58
2021/10/11 21:09:59;;;;;;;16.35;11.23;;;;;;;;;;4997036;28;20072;-58
2021/10/11 21:13:04;;;;;;;15.25;11.75;;;;;;;;;;5013962;28;20136;-58
2021/10/11 21:18:34;;;;;;;15.00;13.20;;;;;;;;;;4964590;28;20200;-59
2021/10/11 21:21:09;;;;;;;17.38;12.50;;;;;;;;;;4978481;28;20050;-58
2021/10/11 21:23:59;;;;;;;18.50;14.07;;;;;;;;;;4978677;28;20578;-58
2021/10/11 21:26:36;;;;;;;18.97;12.63;;;;;;;;;;4991532;28;20111;-58
2021/10/11 21:29:21;;;;;;;18.08;13.93;;;;;;;;;;5020734;28;20030;-58
2021/10/11 21:32:13;;;;;;;19.90;14.00;;;;;;;;;;5030855;28;20132;-58
2021/10/11 21:34:52;;;;;;;19.38;13.77;;;;;;;;;;5039193;28;20033;-58
2021/10/11 21:37:22;;;;;;;18.42;13.65;;;;;;;;;;5039609;28;20025;-58
2021/10/11 21:40:14;;;;;;;19.80;13.75;;;;;;;;;;5039689;28;20061;-58
2021/10/11 21:43:15;;;;;;;16.92;14.55;;;;;;;;;;5037898;28;20036;-58
2021/10/11 21:45:43;;;;;;;17.90;12.35;;;;;;;;;;5038189;28;20076;-58
2021/10/11 21:48:38;;;;;;;20.77;14.57;;;;;;;;;;5038382;28;20032;-58
2021/10/11 21:51:11;;;;;;;19.50;13.38;;;;;;;;;;5038902;28;20025;-58
2021/10/11 21:53:46;;;;;;;17.13;12.50;;;;;;;;;;5037820;28;20064;-58
2021/10/11 21:56:16;;;;;;;17.10;13.23;;;;;;;;;;5038806;28;20040;-58
2021/10/11 21:58:43;;;;;;;13.52;11.93;;;;;;;;;;5039011;28;20407;-58
2021/10/11 22:01:19;;;;;;;20.77;13.63;;;;;;;;;;5038042;28;20025;-58
2021/10/11 22:04:26;;;;;;;;;;;;;;;;;;;;;
2021/10/11 22:07:02;;;;;;;18.40;12.48;;;;;;;;;;5030412;28;20120;-58
2021/10/11 22:09:38;;;;;;;18.55;13.60;;;;;;;;;;5037640;28;20038;-58
2021/10/11 22:12:23;;;;;;;17.15;13.02;;;;;;;;;;5039832;28;20463;-58
2021/10/11 22:14:59;;;;;;;19.30;14.50;;;;;;;;;;5039340;28;20041;-58
2021/10/11 22:20:36;;;;;;;21.23;13.65;;;;;;;;;;5036583;28;20045;-58
2021/10/11 22:23:40;;;;;;;18.52;14.50;;;;;;;;;;5039429;28;20712;-58
2021/10/11 22:26:28;;;;;;;19.63;16.40;;;;;;;;;;5018196;28;20035;-58
2021/10/11 22:29:10;;;;;;;22.70;15.57;;;;;;;;;;5037979;28;20067;-58
2021/10/11 22:31:59;;;;;;;18.13;15.35;;;;;;;;;;5039083;28;20025;-58
2021/10/11 22:34:30;;;;;;;26.48;16.15;;;;;;;;;;5037987;28;20064;-58
2021/10/11 22:37:08;;;;;;;21.30;16.67;;;;;;;;;;5038643;28;20029;-58
2021/10/11 22:40:08;;;;;;;18.83;14.82;;;;;;;;;;5039354;28;20030;-58
2021/10/11 22:43:05;;;;;;;23.57;14.97;;;;;;;;;;5039389;28;20033;-58
2021/10/11 22:45:41;;;;;;;20.98;14.18;;;;;;;;;;5036404;28;20045;-58
2021/10/11 22:48:22;;;;;;;17.08;13.82;;;;;;;;;;5038052;28;20079;-58
2021/10/11 22:57:49;;;;;;;18.92;15.15;;;;;;;;;;4981612;28;20064;-58